Terminal Aerodrome Forecast
Issued by NWS Charleston, WV

Current Version | Previous Version | Graphics & Text | Print | Product List | Glossary On
Versions: 1 2 3 4 5 6 7 8 9 10 11 12 13 14 15 16 17 18 19 20
000
FTUS41 KRLX 151700 RRA
TAFHTS
TAF
KHTS 151750Z 1518/1618 VRB04KT P6SM SCT250
     FM160100 00000KT P6SM BKN250
     FM160300 00000KT P6SM VCSH OVC040
     FM161100 VRB03KT P6SM VCSH OVC020
     FM161300 VRB03KT P6SM OVC015=

USA.gov is the U.S. government's official web portal to all federal, state and local government web resources and services.